createdAt,value
2023-02-20T00:01:00.872Z,5.40
2023-02-20T00:06:02.777Z,5.40
2023-02-20T00:11:04.884Z,5.40
2023-02-20T00:16:07.249Z,5.30
2023-02-20T00:21:09.140Z,5.30
2023-02-20T00:26:12.480Z,5.30
2023-02-20T00:31:16.762Z,5.20
2023-02-20T00:36:20.775Z,5.20
2023-02-20T00:41:22.654Z,5.00
2023-02-20T00:46:24.676Z,5.00
2023-02-20T00:51:26.835Z,4.90
2023-02-20T00:56:28.713Z,4.90
2023-02-20T01:01:31.590Z,4.90
2023-02-20T01:06:33.474Z,4.90
2023-02-20T01:11:37.979Z,4.80
2023-02-20T01:16:53.875Z,4.80
2023-02-20T01:21:56.027Z,4.90
2023-02-20T01:26:58.145Z,4.90
2023-02-20T01:32:00.090Z,4.90
2023-02-20T01:37:02.152Z,4.90
2023-02-20T01:42:07.014Z,5.00
2023-02-20T01:47:11.248Z,5.00
2023-02-20T01:52:23.980Z,5.00
2023-02-20T01:57:28.987Z,5.10
2023-02-20T02:02:33.607Z,5.10
2023-02-20T02:07:36.610Z,5.20
2023-02-20T02:12:39.174Z,5.20
2023-02-20T02:18:01.187Z,5.30
2023-02-20T02:23:24.951Z,5.30
2023-02-20T02:28:42.150Z,5.30
2023-02-20T02:34:05.836Z,5.30
2023-02-20T02:39:28.425Z,5.40
2023-02-20T02:44:46.753Z,5.40
2023-02-20T02:49:55.170Z,5.40
2023-02-20T02:54:56.992Z,5.40
2023-02-20T03:00:07.192Z,5.50
2023-02-20T03:05:10.674Z,5.40
2023-02-20T03:10:20.707Z,5.30
2023-02-20T03:15:33.931Z,5.20
2023-02-20T03:20:36.781Z,5.10
2023-02-20T03:25:42.522Z,5.10
2023-02-20T03:30:50.921Z,5.10
2023-02-20T03:36:13.044Z,5.10
2023-02-20T03:41:34.250Z,5.00
2023-02-20T03:46:37.826Z,5.00
2023-02-20T03:51:59.201Z,5.00
2023-02-20T03:57:13.490Z,4.90
2023-02-20T04:02:26.190Z,4.90
2023-02-20T04:07:34.208Z,5.00
2023-02-20T04:12:41.046Z,5.00
2023-02-20T04:17:53.840Z,5.00
2023-02-20T04:23:00.147Z,5.00
2023-02-20T04:28:02.995Z,4.90
2023-02-20T04:33:04.832Z,4.90
2023-02-20T04:38:07.645Z,4.80
2023-02-20T04:43:09.494Z,4.80
2023-02-20T04:48:11.359Z,4.80
2023-02-20T04:53:14.022Z,4.90
2023-02-20T04:58:16.292Z,4.90
2023-02-20T05:03:18.142Z,4.90
2023-02-20T05:08:19.976Z,4.80
2023-02-20T05:13:21.851Z,4.70
2023-02-20T05:18:27.874Z,4.70
2023-02-20T05:23:29.695Z,4.60
2023-02-20T05:28:31.584Z,4.50
2023-02-20T05:33:33.611Z,4.50
2023-02-20T05:38:35.479Z,4.40
2023-02-20T05:43:37.294Z,4.40
2023-02-20T05:48:39.123Z,4.40
2023-02-20T05:53:41.982Z,4.40
2023-02-20T05:58:44.376Z,4.40
2023-02-20T06:03:46.417Z,4.30
2023-02-20T06:08:48.783Z,4.30
2023-02-20T06:13:50.616Z,4.20
2023-02-20T06:18:53.164Z,4.20
2023-02-20T06:23:55.431Z,4.20
2023-02-20T06:28:58.214Z,4.20
2023-02-20T06:34:00.177Z,4.20
2023-02-20T06:39:02.549Z,4.30
2023-02-20T06:44:04.608Z,4.30
2023-02-20T06:49:06.499Z,4.30
2023-02-20T06:54:12.218Z,4.40
2023-02-20T06:59:15.056Z,4.50
2023-02-20T07:04:22.470Z,4.50
2023-02-20T07:09:25.270Z,4.60
2023-02-20T07:14:27.643Z,4.80
2023-02-20T07:19:29.457Z,4.80
2023-02-20T07:24:31.331Z,4.90
2023-02-20T07:29:33.247Z,5.20
2023-02-20T07:34:35.170Z,5.60
2023-02-20T07:39:36.990Z,5.90
2023-02-20T07:44:38.853Z,6.20
2023-02-20T07:49:40.735Z,6.50
2023-02-20T07:54:49.846Z,6.80
2023-02-20T07:59:51.662Z,7.00
2023-02-20T08:04:53.500Z,7.10
2023-02-20T08:09:55.333Z,6.90
2023-02-20T08:14:57.154Z,6.80
2023-02-20T08:19:59.055Z,6.70
2023-02-20T08:25:00.904Z,6.80
2023-02-20T08:30:02.805Z,7.00
2023-02-20T08:35:05.011Z,7.30
2023-02-20T08:40:08.739Z,7.60
2023-02-20T08:45:11.327Z,7.80
2023-02-20T08:50:13.218Z,7.70
2023-02-20T08:55:26.820Z,7.80
2023-02-20T09:00:28.702Z,8.40
2023-02-20T09:05:30.634Z,9.50
2023-02-20T09:10:32.548Z,10.50
2023-02-20T09:15:39.596Z,11.50
2023-02-20T09:20:41.830Z,12.00
2023-02-20T09:25:43.680Z,12.30
2023-02-20T09:30:45.621Z,12.50
2023-02-20T09:35:49.424Z,12.50
2023-02-20T09:40:54.273Z,12.40
2023-02-20T09:46:22.156Z,12.30
2023-02-20T09:51:25.955Z,12.10
2023-02-20T09:56:51.025Z,11.80
2023-02-20T10:01:56.795Z,11.70
2023-02-20T10:07:07.282Z,11.60
2023-02-20T10:12:24.343Z,11.60
2023-02-20T10:18:13.529Z,11.80
2023-02-20T10:23:30.645Z,12.10
2023-02-20T10:28:33.245Z,12.50
2023-02-20T10:33:58.739Z,13.00
2023-02-20T10:39:07.016Z,13.20
2023-02-20T10:44:20.911Z,13.00
2023-02-20T10:49:29.847Z,13.40
2023-02-20T10:54:37.819Z,13.70
2023-02-20T10:59:49.322Z,13.80
2023-02-20T11:04:59.048Z,13.70
2023-02-20T11:10:00.929Z,13.90
2023-02-20T11:15:26.570Z,14.10
2023-02-20T11:20:52.686Z,13.90
2023-02-20T11:25:54.670Z,13.60
2023-02-20T11:31:06.275Z,13.30
2023-02-20T11:36:20.456Z,13.10
2023-02-20T11:41:29.243Z,13.00
2023-02-20T11:46:31.164Z,13.00
2023-02-20T11:51:39.158Z,12.90
2023-02-20T11:56:55.048Z,12.90
2023-02-20T12:02:13.614Z,12.90
2023-02-20T12:07:19.031Z,12.80
2023-02-20T12:12:23.862Z,12.80
2023-02-20T12:17:35.965Z,13.10
2023-02-20T12:22:38.617Z,13.50
2023-02-20T12:28:07.909Z,14.00
2023-02-20T12:33:44.077Z,14.30
2023-02-20T12:38:50.750Z,14.30
2023-02-20T12:44:13.574Z,14.50
2023-02-20T12:49:26.274Z,14.70
2023-02-20T12:54:58.845Z,14.80
2023-02-20T13:00:04.509Z,14.80
2023-02-20T13:05:11.600Z,14.90
2023-02-20T13:10:15.830Z,14.80
2023-02-20T13:15:24.125Z,14.50
2023-02-20T13:20:28.595Z,14.30
2023-02-20T13:25:33.550Z,14.30
2023-02-20T13:30:35.437Z,14.10
2023-02-20T13:35:54.368Z,13.90
2023-02-20T13:40:56.157Z,13.60
2023-02-20T13:46:00.861Z,13.40
2023-02-20T13:51:14.759Z,13.20
2023-02-20T13:56:26.304Z,13.10
2023-02-20T14:01:28.271Z,13.00
2023-02-20T14:06:31.378Z,12.90
2023-02-20T14:11:35.359Z,12.80
2023-02-20T14:16:40.235Z,12.70
2023-02-20T14:21:42.103Z,12.60
2023-02-20T14:26:43.962Z,12.60
2023-02-20T14:31:46.222Z,12.50
2023-02-20T14:37:20.629Z,12.50
2023-02-20T14:42:24.836Z,12.60
2023-02-20T14:47:26.914Z,12.60
2023-02-20T14:52:29.932Z,12.50
2023-02-20T14:57:32.290Z,12.60
2023-02-20T15:02:34.810Z,12.60
2023-02-20T15:07:39.393Z,12.60
2023-02-20T15:12:41.311Z,12.60
2023-02-20T15:17:43.967Z,12.60
2023-02-20T15:22:45.824Z,12.50
2023-02-20T15:28:08.496Z,12.50
2023-02-20T15:33:10.406Z,12.40
2023-02-20T15:38:13.250Z,12.40
2023-02-20T15:43:37.402Z,12.30
2023-02-20T15:48:37.150Z,12.30
2023-02-20T15:53:39.020Z,12.20
2023-02-20T15:58:44.498Z,12.10
2023-02-20T16:03:54.657Z,12.00
2023-02-20T16:08:56.715Z,12.00
2023-02-20T16:14:00.294Z,11.90
2023-02-20T16:19:03.852Z,11.90
2023-02-20T16:24:05.911Z,11.90
2023-02-20T16:29:16.570Z,11.90
2023-02-20T16:34:22.075Z,11.80
2023-02-20T16:39:27.316Z,11.70
2023-02-20T16:44:32.450Z,11.60
2023-02-20T16:49:37.405Z,11.60
2023-02-20T16:54:39.335Z,11.60
2023-02-20T16:59:41.807Z,11.60
2023-02-20T17:04:43.938Z,11.50
2023-02-20T17:09:46.975Z,11.40
2023-02-20T17:14:48.875Z,11.40
2023-02-20T17:19:58.402Z,11.30
2023-02-20T17:25:00.408Z,11.30
2023-02-20T17:30:02.992Z,11.20
2023-02-20T17:35:05.562Z,11.10
2023-02-20T17:40:08.042Z,11.00
2023-02-20T17:45:10.062Z,11.00
2023-02-20T17:50:14.466Z,10.90
2023-02-20T17:55:18.663Z,10.80
2023-02-20T18:00:21.338Z,10.70
2023-02-20T18:05:23.197Z,10.60
2023-02-20T18:10:25.538Z,10.60
2023-02-20T18:15:27.432Z,10.60
2023-02-20T18:20:29.934Z,10.50
2023-02-20T18:25:40.407Z,10.50
2023-02-20T18:30:42.896Z,10.50
2023-02-20T18:35:47.436Z,10.50
2023-02-20T18:40:52.413Z,10.50
2023-02-20T18:45:54.873Z,10.50
2023-02-20T18:50:56.704Z,10.50
2023-02-20T18:55:59.688Z,10.50
2023-02-20T19:01:01.830Z,10.50
2023-02-20T19:06:06.141Z,10.50
2023-02-20T19:11:10.410Z,10.50
2023-02-20T19:16:12.930Z,10.50
2023-02-20T19:21:22.483Z,10.50
2023-02-20T19:26:24.441Z,10.60
2023-02-20T19:31:26.334Z,10.60
2023-02-20T19:36:28.399Z,10.70
2023-02-20T19:41:30.375Z,10.70
2023-02-20T19:46:32.336Z,10.70
2023-02-20T19:51:34.229Z,10.70
2023-02-20T19:56:36.062Z,10.70
2023-02-20T20:01:38.971Z,10.70
2023-02-20T20:06:40.859Z,10.70
2023-02-20T20:11:43.528Z,10.60
2023-02-20T20:16:45.439Z,10.60
2023-02-20T20:21:48.858Z,10.60
2023-02-20T20:26:50.931Z,10.50
2023-02-20T20:31:52.984Z,10.50
2023-02-20T20:36:54.811Z,10.40
2023-02-20T20:41:56.628Z,10.30
2023-02-20T20:46:58.519Z,10.20
2023-02-20T20:52:00.626Z,10.10
2023-02-20T20:57:02.538Z,10.00
2023-02-20T21:02:04.418Z,9.90
2023-02-20T21:07:06.257Z,9.80
2023-02-20T21:12:10.395Z,9.60
2023-02-20T21:17:13.209Z,9.50
2023-02-20T21:22:15.619Z,9.40
2023-02-20T21:27:18.657Z,9.30
2023-02-20T21:32:20.545Z,9.10
2023-02-20T21:37:22.476Z,8.90
2023-02-20T21:42:42.709Z,8.70
2023-02-20T21:47:46.904Z,8.60
2023-02-20T21:52:49.746Z,8.40
2023-02-20T21:57:51.946Z,8.30
2023-02-20T22:02:53.776Z,8.10
2023-02-20T22:08:14.412Z,7.90
2023-02-20T22:13:34.614Z,7.70
2023-02-20T22:18:55.069Z,7.50
2023-02-20T22:24:15.713Z,7.30
2023-02-20T22:29:36.200Z,7.10
2023-02-20T22:35:10.584Z,7.00
2023-02-20T22:40:41.504Z,6.90
2023-02-20T22:46:14.654Z,6.80
2023-02-20T22:51:48.337Z,6.80
2023-02-20T22:57:20.288Z,6.80
2023-02-20T23:02:41.950Z,6.90
2023-02-20T23:08:02.638Z,7.10
2023-02-20T23:13:23.369Z,7.20
2023-02-20T23:18:43.993Z,7.20
2023-02-20T23:24:05.992Z,7.10
2023-02-20T23:29:26.485Z,7.00
2023-02-20T23:34:48.548Z,6.90
2023-02-20T23:40:09.623Z,6.80
2023-02-20T23:45:30.093Z,6.60
2023-02-20T23:50:50.521Z,6.50
2023-02-20T23:56:10.676Z,6.30
